createdAt,value
2018-02-19T00:00:49.325Z,1009.92
2018-02-19T00:02:42.703Z,1009.91
2018-02-19T00:03:42.657Z,1009.90
2018-02-19T00:05:35.969Z,1009.89
2018-02-19T00:06:35.990Z,1009.85
2018-02-19T00:08:29.244Z,1009.87
2018-02-19T00:09:29.236Z,1009.88
2018-02-19T00:11:22.565Z,1009.89
2018-02-19T00:12:22.510Z,1009.90
2018-02-19T00:14:17.827Z,1009.90
2018-02-19T00:15:17.844Z,1009.91
2018-02-19T00:17:11.188Z,1009.86
2018-02-19T00:18:11.197Z,1009.88
2018-02-19T00:20:04.443Z,1009.81
2018-02-19T00:21:04.442Z,1009.76
2018-02-19T00:22:57.768Z,1009.69
2018-02-19T00:23:57.740Z,1009.64
2018-02-19T00:25:51.060Z,1009.57
2018-02-19T00:26:51.036Z,1009.62
2018-02-19T00:28:44.406Z,1009.56
2018-02-19T00:29:44.342Z,1009.57
2018-02-19T00:31:37.652Z,1009.57
2018-02-19T00:32:37.646Z,1009.57
2018-02-19T00:34:31.024Z,1009.51
2018-02-19T00:35:30.936Z,1009.47
2018-02-19T00:37:24.333Z,1009.48
2018-02-19T00:38:24.268Z,1009.45
2018-02-19T00:40:17.662Z,1009.41
2018-02-19T00:41:17.589Z,1009.41
2018-02-19T00:43:10.921Z,1009.46
2018-02-19T00:44:10.876Z,1009.40
2018-02-19T00:46:04.213Z,1009.34
2018-02-19T00:47:04.191Z,1009.36
2018-02-19T00:48:57.540Z,1009.35
2018-02-19T00:49:57.513Z,1009.37
2018-02-19T00:51:50.834Z,1009.32
2018-02-19T00:52:50.823Z,1009.34
2018-02-19T00:54:44.138Z,1009.34
2018-02-19T00:55:44.090Z,1009.35
2018-02-19T00:57:37.442Z,1009.32
2018-02-19T00:58:37.383Z,1009.34
2018-02-19T01:00:30.713Z,1009.27
2018-02-19T01:01:30.680Z,1009.31
2018-02-19T01:03:24.034Z,1009.30
2018-02-19T01:04:24.010Z,1009.30
2018-02-19T01:06:17.282Z,1009.28
2018-02-19T01:07:17.295Z,1009.30
2018-02-19T01:09:10.688Z,1009.25
2018-02-19T01:10:10.614Z,1009.22
2018-02-19T01:12:03.940Z,1009.12
2018-02-19T01:13:03.893Z,1009.16
2018-02-19T01:14:57.242Z,1009.08
2018-02-19T01:15:57.170Z,1009.11
2018-02-19T01:17:50.545Z,1009.10
2018-02-19T01:18:50.466Z,1009.16
2018-02-19T01:20:43.793Z,1009.17
2018-02-19T01:21:43.782Z,1009.11
2018-02-19T01:23:37.114Z,1009.07
2018-02-19T01:24:37.147Z,1009.07
2018-02-19T01:26:30.484Z,1009.06
2018-02-19T01:27:30.477Z,1009.09
2018-02-19T01:29:23.733Z,1009.01
2018-02-19T01:30:23.719Z,1008.99
2018-02-19T01:32:17.061Z,1009.01
2018-02-19T01:33:17.030Z,1008.98
2018-02-19T01:35:10.348Z,1008.92
2018-02-19T01:36:10.309Z,1008.91
2018-02-19T01:38:03.688Z,1008.88
2018-02-19T01:39:03.623Z,1008.84
2018-02-19T01:40:57.950Z,1008.76
2018-02-19T01:41:57.972Z,1008.69
2018-02-19T01:43:50.779Z,1008.68
2018-02-19T01:44:50.726Z,1008.66
2018-02-19T01:46:44.130Z,1008.60
2018-02-19T01:47:44.075Z,1008.63
2018-02-19T01:49:37.397Z,1008.61
2018-02-19T01:50:37.375Z,1008.61
2018-02-19T01:52:30.652Z,1008.57
2018-02-19T01:53:30.674Z,1008.53
2018-02-19T01:55:23.971Z,1008.53
2018-02-19T01:56:23.985Z,1008.58
2018-02-19T01:58:17.256Z,1008.56
2018-02-19T01:59:17.290Z,1008.53
2018-02-19T02:01:10.612Z,1008.52
2018-02-19T02:02:10.590Z,1008.52
2018-02-19T02:04:03.918Z,1008.50
2018-02-19T02:05:03.885Z,1008.50
2018-02-19T02:06:57.211Z,1008.53
2018-02-19T02:07:57.154Z,1008.51
2018-02-19T02:09:50.476Z,1008.44
2018-02-19T02:10:50.466Z,1008.45
2018-02-19T02:12:44.008Z,1008.43
2018-02-19T02:13:43.834Z,1008.40
2018-02-19T02:15:37.098Z,1008.42
2018-02-19T02:16:37.100Z,1008.38
2018-02-19T02:18:30.630Z,1008.35
2018-02-19T02:19:30.371Z,1008.35
2018-02-19T02:21:23.678Z,1008.31
2018-02-19T02:22:23.665Z,1008.30
2018-02-19T02:24:17.008Z,1008.28
2018-02-19T02:25:17.010Z,1008.26
2018-02-19T02:27:10.351Z,1008.28
2018-02-19T02:28:10.286Z,1008.27
2018-02-19T02:30:03.623Z,1008.29
2018-02-19T02:31:03.574Z,1008.27
2018-02-19T02:32:56.938Z,1008.19
2018-02-19T02:33:56.864Z,1008.22
2018-02-19T02:35:50.268Z,1008.13
2018-02-19T02:36:50.205Z,1008.17
2018-02-19T02:38:44.518Z,1008.07
2018-02-19T02:39:44.500Z,1008.08
2018-02-19T02:41:37.841Z,1008.09
2018-02-19T02:42:37.786Z,1008.12
2018-02-19T02:44:31.099Z,1008.10
2018-02-19T02:45:31.124Z,1008.07
2018-02-19T02:47:24.424Z,1008.08
2018-02-19T02:48:24.389Z,1008.01
2018-02-19T02:50:17.843Z,1008.05
2018-02-19T02:51:17.715Z,1008.09
2018-02-19T02:53:11.025Z,1008.09
2018-02-19T02:54:10.976Z,1008.07
2018-02-19T02:56:04.332Z,1008.06
2018-02-19T02:57:04.309Z,1008.11
2018-02-19T02:58:57.656Z,1008.05
2018-02-19T02:59:57.590Z,1008.08
2018-02-19T03:01:50.904Z,1008.04
2018-02-19T03:02:50.906Z,1008.03
2018-02-19T03:04:45.291Z,1008.03
2018-02-19T03:05:45.215Z,1008.01
2018-02-19T03:07:38.500Z,1008.06
2018-02-19T03:08:38.523Z,1008.02
2018-02-19T03:10:31.852Z,1008.05
2018-02-19T03:11:31.816Z,1008.07
2018-02-19T03:13:25.151Z,1008.05
2018-02-19T03:14:25.154Z,1008.10
2018-02-19T03:16:18.479Z,1008.08
2018-02-19T03:17:18.471Z,1008.01
2018-02-19T03:19:11.764Z,1008.03
2018-02-19T03:20:11.746Z,1008.01
2018-02-19T03:22:05.045Z,1008.04
2018-02-19T03:23:05.032Z,1008.03
2018-02-19T03:24:58.334Z,1008.05
2018-02-19T03:25:58.328Z,1008.05
2018-02-19T03:27:51.663Z,1008.07
2018-02-19T03:28:51.644Z,1008.06
2018-02-19T03:30:44.928Z,1008.07
2018-02-19T03:31:44.923Z,1008.03
2018-02-19T03:33:38.230Z,1008.08
2018-02-19T03:34:38.222Z,1008.06
2018-02-19T03:36:31.551Z,1008.07
2018-02-19T03:37:31.529Z,1008.10
2018-02-19T03:39:24.883Z,1008.08
2018-02-19T03:40:24.844Z,1008.04
2018-02-19T03:42:18.154Z,1008.10
2018-02-19T03:43:18.133Z,1008.11
2018-02-19T03:45:11.480Z,1008.07
2018-02-19T03:46:11.461Z,1008.06
2018-02-19T03:48:05.763Z,1008.07
2018-02-19T03:49:05.754Z,1008.00
2018-02-19T03:50:59.044Z,1007.97
2018-02-19T03:51:59.063Z,1007.92
2018-02-19T03:53:52.330Z,1007.93
2018-02-19T03:54:52.408Z,1007.92
2018-02-19T03:56:45.666Z,1007.91
2018-02-19T03:57:45.640Z,1007.88
2018-02-19T03:59:38.944Z,1007.87
2018-02-19T04:00:38.925Z,1007.85
2018-02-19T04:02:32.295Z,1007.83
2018-02-19T04:03:32.210Z,1007.84
2018-02-19T04:05:25.588Z,1007.82
2018-02-19T04:06:25.548Z,1007.82
2018-02-19T04:08:18.831Z,1007.79
2018-02-19T04:09:18.837Z,1007.75
2018-02-19T04:11:13.151Z,1007.76
2018-02-19T04:12:13.128Z,1007.78
2018-02-19T04:14:06.483Z,1007.76
2018-02-19T04:15:06.452Z,1007.72
2018-02-19T04:16:59.745Z,1007.71
2018-02-19T04:17:59.719Z,1007.66
2018-02-19T04:19:53.044Z,1007.62
2018-02-19T04:20:53.029Z,1007.65
2018-02-19T04:22:46.314Z,1007.66
2018-02-19T04:23:46.322Z,1007.62
2018-02-19T04:25:39.657Z,1007.64
2018-02-19T04:26:39.613Z,1007.65
2018-02-19T04:28:32.914Z,1007.61
2018-02-19T04:29:32.973Z,1007.60
2018-02-19T04:31:26.239Z,1007.57
2018-02-19T04:32:26.212Z,1007.55
2018-02-19T04:34:19.527Z,1007.56
2018-02-19T04:35:19.532Z,1007.53
2018-02-19T04:37:12.853Z,1007.53
2018-02-19T04:38:12.846Z,1007.52
2018-02-19T04:40:06.177Z,1007.49
2018-02-19T04:41:06.123Z,1007.48
2018-02-19T04:43:00.420Z,1007.50
2018-02-19T04:44:00.439Z,1007.51
2018-02-19T04:45:53.762Z,1007.49
2018-02-19T04:46:53.739Z,1007.51
2018-02-19T04:48:47.066Z,1007.53
2018-02-19T04:49:47.052Z,1007.54
2018-02-19T04:51:40.311Z,1007.51
2018-02-19T04:52:40.320Z,1007.58
2018-02-19T04:54:33.629Z,1007.53
2018-02-19T04:55:33.633Z,1007.54
2018-02-19T04:57:26.962Z,1007.52
2018-02-19T04:58:26.889Z,1007.50
2018-02-19T05:00:20.256Z,1007.47
2018-02-19T05:01:20.213Z,1007.49
2018-02-19T05:03:13.589Z,1007.43
2018-02-19T05:04:13.519Z,1007.47
2018-02-19T05:06:06.920Z,1007.45
2018-02-19T05:07:06.946Z,1007.47
2018-02-19T05:09:00.201Z,1007.44
2018-02-19T05:10:00.178Z,1007.44
2018-02-19T05:11:53.495Z,1007.43
2018-02-19T05:12:53.480Z,1007.38
2018-02-19T05:14:46.811Z,1007.37
2018-02-19T05:15:46.744Z,1007.32
2018-02-19T05:17:40.090Z,1007.37
2018-02-19T05:18:40.093Z,1007.35
2018-02-19T05:20:33.388Z,1007.38
2018-02-19T05:21:33.349Z,1007.42
2018-02-19T05:23:26.718Z,1007.45
2018-02-19T05:24:26.676Z,1007.46
2018-02-19T05:26:20.969Z,1007.39
2018-02-19T05:27:21.037Z,1007.41
2018-02-19T05:29:14.307Z,1007.36
2018-02-19T05:30:14.299Z,1007.37
2018-02-19T05:32:07.579Z,1007.38
2018-02-19T05:33:07.594Z,1007.40
2018-02-19T05:35:00.852Z,1007.37
2018-02-19T05:36:00.863Z,1007.36
2018-02-19T05:37:54.183Z,1007.43
2018-02-19T05:38:54.213Z,1007.41
2018-02-19T05:40:47.512Z,1007.38
2018-02-19T05:41:47.468Z,1007.40
2018-02-19T05:43:40.725Z,1007.46
2018-02-19T05:44:40.833Z,1007.44
2018-02-19T05:46:34.040Z,1007.37
2018-02-19T05:47:34.046Z,1007.41
2018-02-19T05:49:27.325Z,1007.35
2018-02-19T05:50:27.330Z,1007.41
2018-02-19T05:52:20.668Z,1007.42
2018-02-19T05:53:20.640Z,1007.45
2018-02-19T05:55:13.970Z,1007.44
2018-02-19T05:56:13.933Z,1007.37
2018-02-19T05:58:08.246Z,1007.41
2018-02-19T05:59:08.234Z,1007.37
2018-02-19T06:01:01.537Z,1007.40
2018-02-19T06:02:01.506Z,1007.37
2018-02-19T06:03:54.852Z,1007.36
2018-02-19T06:04:54.810Z,1007.37
2018-02-19T06:06:48.151Z,1007.35
2018-02-19T06:07:48.124Z,1007.34
2018-02-19T06:09:41.458Z,1007.35
2018-02-19T06:10:41.432Z,1007.33
2018-02-19T06:12:35.332Z,1007.31
2018-02-19T06:13:34.693Z,1007.28
2018-02-19T06:15:28.156Z,1007.35
2018-02-19T06:16:28.017Z,1007.34
2018-02-19T06:18:21.319Z,1007.41
2018-02-19T06:19:21.317Z,1007.38
2018-02-19T06:21:15.635Z,1007.41
2018-02-19T06:22:15.623Z,1007.43
2018-02-19T06:24:08.931Z,1007.42
2018-02-19T06:25:08.883Z,1007.45
2018-02-19T06:27:02.253Z,1007.48
2018-02-19T06:28:02.220Z,1007.49
2018-02-19T06:29:55.545Z,1007.52
2018-02-19T06:30:55.535Z,1007.52
2018-02-19T06:32:48.828Z,1007.59
2018-02-19T06:33:48.785Z,1007.58
2018-02-19T06:35:42.130Z,1007.61
2018-02-19T06:36:42.115Z,1007.59
2018-02-19T06:38:35.434Z,1007.56
2018-02-19T06:39:35.439Z,1007.58
2018-02-19T06:41:28.707Z,1007.57
2018-02-19T06:42:28.706Z,1007.56
2018-02-19T06:44:23.131Z,1007.56
2018-02-19T06:45:23.002Z,1007.57
2018-02-19T06:47:17.319Z,1007.53
2018-02-19T06:48:17.306Z,1007.57
2018-02-19T06:50:10.635Z,1007.52
2018-02-19T06:51:10.597Z,1007.51
2018-02-19T06:53:03.950Z,1007.47
2018-02-19T06:54:03.903Z,1007.48
2018-02-19T06:55:57.278Z,1007.47
2018-02-19T06:56:57.187Z,1007.48
2018-02-19T06:58:50.518Z,1007.44
2018-02-19T06:59:50.505Z,1007.48
2018-02-19T07:01:43.854Z,1007.50
2018-02-19T07:02:43.807Z,1007.48
2018-02-19T07:04:37.138Z,1007.49
2018-02-19T07:05:37.100Z,1007.46
2018-02-19T07:07:30.432Z,1007.39
2018-02-19T07:08:30.423Z,1007.38
2018-02-19T07:10:23.739Z,1007.35
2018-02-19T07:11:23.699Z,1007.29
2018-02-19T07:13:18.072Z,1007.35
2018-02-19T07:14:18.025Z,1007.35
2018-02-19T07:16:11.321Z,1007.31
2018-02-19T07:17:11.329Z,1007.31
2018-02-19T07:19:04.664Z,1007.27
2018-02-19T07:20:04.612Z,1007.28
2018-02-19T07:21:57.942Z,1007.27
2018-02-19T07:22:57.914Z,1007.26
2018-02-19T07:24:51.256Z,1007.25
2018-02-19T07:25:51.250Z,1007.25
2018-02-19T07:27:44.554Z,1007.21
2018-02-19T07:28:44.533Z,1007.22
2018-02-19T07:30:37.935Z,1007.23
2018-02-19T07:31:37.823Z,1007.22
2018-02-19T07:33:31.157Z,1007.23
2018-02-19T07:34:31.129Z,1007.24
2018-02-19T07:36:24.494Z,1007.21
2018-02-19T07:37:24.420Z,1007.27
2018-02-19T07:39:17.764Z,1007.27
2018-02-19T07:40:17.731Z,1007.27
2018-02-19T07:42:11.067Z,1007.25
2018-02-19T07:43:11.027Z,1007.22
2018-02-19T07:45:04.348Z,1007.22
2018-02-19T07:46:04.336Z,1007.18
2018-02-19T07:47:57.669Z,1007.17
2018-02-19T07:48:57.629Z,1007.23
2018-02-19T07:50:51.059Z,1007.19
2018-02-19T07:51:50.933Z,1007.13
2018-02-19T07:53:44.267Z,1007.14
2018-02-19T07:54:44.224Z,1007.10
2018-02-19T07:56:37.565Z,1007.12
2018-02-19T07:57:37.551Z,1007.15
2018-02-19T07:59:30.882Z,1007.12
2018-02-19T08:00:30.833Z,1007.06
2018-02-19T08:02:24.167Z,1007.09
2018-02-19T08:03:24.132Z,1007.02
2018-02-19T08:05:17.481Z,1007.05
2018-02-19T08:06:17.417Z,1007.03
2018-02-19T08:08:10.760Z,1006.99
2018-02-19T08:09:10.732Z,1007.02
2018-02-19T08:11:04.162Z,1007.02
2018-02-19T08:12:04.025Z,1007.01
2018-02-19T08:13:57.334Z,1007.02
2018-02-19T08:14:57.313Z,1006.99
2018-02-19T08:16:50.670Z,1006.99
2018-02-19T08:17:50.634Z,1007.01
2018-02-19T08:19:43.957Z,1007.02
2018-02-19T08:20:43.923Z,1007.05
2018-02-19T08:22:37.289Z,1007.08
2018-02-19T08:23:37.243Z,1007.05
2018-02-19T08:25:30.599Z,1007.06
2018-02-19T08:26:30.544Z,1007.03
2018-02-19T08:28:23.888Z,1007.06
2018-02-19T08:29:23.836Z,1007.03
2018-02-19T08:31:17.176Z,1007.07
2018-02-19T08:32:17.153Z,1007.08
2018-02-19T08:34:11.473Z,1007.10
2018-02-19T08:35:11.435Z,1007.12
2018-02-19T08:37:04.758Z,1007.11
2018-02-19T08:38:04.738Z,1007.11
2018-02-19T08:39:58.085Z,1007.18
2018-02-19T08:40:58.074Z,1007.19
2018-02-19T08:42:51.367Z,1007.16
2018-02-19T08:43:51.333Z,1007.17
2018-02-19T08:45:44.668Z,1007.16
2018-02-19T08:46:44.639Z,1007.16
2018-02-19T08:48:38.988Z,1007.18
2018-02-19T08:49:38.932Z,1007.16
2018-02-19T08:51:32.282Z,1007.16
2018-02-19T08:52:32.243Z,1007.19
2018-02-19T08:54:26.570Z,1007.16
2018-02-19T08:55:26.539Z,1007.18
2018-02-19T08:57:19.890Z,1007.11
2018-02-19T08:58:19.839Z,1007.14
2018-02-19T09:00:14.145Z,1007.10
2018-02-19T09:01:14.154Z,1007.06
2018-02-19T09:03:07.457Z,1007.02
2018-02-19T09:04:07.424Z,1006.99
2018-02-19T09:06:00.758Z,1007.02
2018-02-19T09:07:00.715Z,1007.03
2018-02-19T09:08:54.060Z,1007.02
2018-02-19T09:09:54.016Z,1007.03
2018-02-19T09:11:47.353Z,1007.03
2018-02-19T09:12:47.326Z,1006.98
2018-02-19T09:14:41.658Z,1006.97
2018-02-19T09:15:41.608Z,1006.92
2018-02-19T09:17:34.963Z,1006.91
2018-02-19T09:18:34.923Z,1006.89
2018-02-19T09:20:28.282Z,1006.88
2018-02-19T09:21:28.239Z,1006.91
2018-02-19T09:23:21.550Z,1006.87
2018-02-19T09:24:21.549Z,1006.85
2018-02-19T09:26:14.871Z,1006.89
2018-02-19T09:27:14.854Z,1006.86
2018-02-19T09:29:08.154Z,1006.84
2018-02-19T09:30:08.131Z,1006.79
2018-02-19T09:32:01.472Z,1006.83
2018-02-19T09:33:01.418Z,1006.83
2018-02-19T09:34:54.770Z,1006.80
2018-02-19T09:35:54.727Z,1006.80
2018-02-19T09:37:48.067Z,1006.76
2018-02-19T09:38:48.030Z,1006.76
2018-02-19T09:40:41.345Z,1006.80
2018-02-19T09:41:41.334Z,1006.76
2018-02-19T09:43:34.735Z,1006.78
2018-02-19T09:44:34.633Z,1006.76
2018-02-19T09:46:27.969Z,1006.77
2018-02-19T09:47:27.938Z,1006.74
2018-02-19T09:49:21.289Z,1006.70
2018-02-19T09:50:21.241Z,1006.67
2018-02-19T09:52:14.566Z,1006.62
2018-02-19T09:53:14.538Z,1006.59
2018-02-19T09:55:07.877Z,1006.55
2018-02-19T09:56:07.833Z,1006.57
2018-02-19T09:58:01.155Z,1006.56
2018-02-19T09:59:01.154Z,1006.53
2018-02-19T10:00:54.484Z,1006.57
2018-02-19T10:01:54.461Z,1006.62
2018-02-19T10:03:47.759Z,1006.61
2018-02-19T10:04:47.753Z,1006.57
2018-02-19T10:06:41.087Z,1006.57
2018-02-19T10:07:41.062Z,1006.55
2018-02-19T10:09:34.361Z,1006.58
2018-02-19T10:10:34.342Z,1006.57
2018-02-19T10:12:27.692Z,1006.55
2018-02-19T10:13:27.638Z,1006.49
2018-02-19T10:15:20.966Z,1006.45
2018-02-19T10:16:20.945Z,1006.43
2018-02-19T10:18:14.301Z,1006.39
2018-02-19T10:19:14.278Z,1006.40
2018-02-19T10:21:07.576Z,1006.42
2018-02-19T10:22:07.573Z,1006.42
2018-02-19T10:24:00.912Z,1006.41
2018-02-19T10:25:00.864Z,1006.41
2018-02-19T10:26:54.201Z,1006.41
2018-02-19T10:27:54.175Z,1006.43
2018-02-19T10:29:47.517Z,1006.37
2018-02-19T10:30:47.472Z,1006.43
2018-02-19T10:32:40.786Z,1006.44
2018-02-19T10:33:40.765Z,1006.40
2018-02-19T10:35:34.104Z,1006.41
2018-02-19T10:36:34.078Z,1006.40
2018-02-19T10:38:27.412Z,1006.41
2018-02-19T10:39:27.356Z,1006.40
2018-02-19T10:41:20.707Z,1006.37
2018-02-19T10:42:20.663Z,1006.38
2018-02-19T10:44:13.992Z,1006.36
2018-02-19T10:45:13.963Z,1006.43
2018-02-19T10:47:08.300Z,1006.41
2018-02-19T10:48:08.244Z,1006.44
2018-02-19T10:50:01.574Z,1006.44
2018-02-19T10:51:01.571Z,1006.41
2018-02-19T10:52:54.900Z,1006.36
2018-02-19T10:53:54.860Z,1006.30
2018-02-19T10:55:48.197Z,1006.35
2018-02-19T10:56:48.156Z,1006.38
2018-02-19T10:58:41.502Z,1006.38
2018-02-19T10:59:41.492Z,1006.40
2018-02-19T11:01:34.798Z,1006.35
2018-02-19T11:02:34.778Z,1006.38
2018-02-19T11:04:28.131Z,1006.41
2018-02-19T11:05:28.064Z,1006.36
2018-02-19T11:07:21.383Z,1006.35
2018-02-19T11:08:21.378Z,1006.38
2018-02-19T11:10:14.722Z,1006.35
2018-02-19T11:11:14.676Z,1006.30
2018-02-19T11:13:07.982Z,1006.27
2018-02-19T11:14:07.978Z,1006.25
2018-02-19T11:16:01.299Z,1006.23
2018-02-19T11:17:01.274Z,1006.21
2018-02-19T11:18:54.608Z,1006.19
2018-02-19T11:19:54.573Z,1006.21
2018-02-19T11:21:47.930Z,1006.20
2018-02-19T11:22:47.881Z,1006.17
2018-02-19T11:24:41.228Z,1006.16
2018-02-19T11:25:41.196Z,1006.15
2018-02-19T11:27:34.543Z,1006.17
2018-02-19T11:28:34.511Z,1006.16
2018-02-19T11:30:27.821Z,1006.12
2018-02-19T11:31:27.812Z,1006.15
2018-02-19T11:33:21.179Z,1006.13
2018-02-19T11:34:21.119Z,1006.05
2018-02-19T11:36:14.471Z,1006.03
2018-02-19T11:37:14.451Z,1006.04
2018-02-19T11:39:07.776Z,1006.01
2018-02-19T11:40:07.744Z,1006.00
2018-02-19T11:42:01.062Z,1005.98
2018-02-19T11:43:01.036Z,1005.91
2018-02-19T11:44:54.372Z,1005.92
2018-02-19T11:45:54.346Z,1005.89
2018-02-19T11:47:47.672Z,1005.86
2018-02-19T11:48:47.641Z,1005.87
2018-02-19T11:50:40.966Z,1005.84
2018-02-19T11:51:40.959Z,1005.77
2018-02-19T11:53:34.264Z,1005.77
2018-02-19T11:54:34.253Z,1005.75
2018-02-19T11:56:27.608Z,1005.74
2018-02-19T11:57:27.551Z,1005.71
2018-02-19T11:59:20.879Z,1005.70
2018-02-19T12:00:20.868Z,1005.68
2018-02-19T12:02:14.210Z,1005.65
2018-02-19T12:03:14.155Z,1005.66
2018-02-19T12:05:07.468Z,1005.60
2018-02-19T12:06:07.542Z,1005.58
2018-02-19T12:08:00.813Z,1005.58
2018-02-19T12:09:00.797Z,1005.58
2018-02-19T12:10:54.093Z,1005.61
2018-02-19T12:11:54.063Z,1005.58
2018-02-19T12:13:48.422Z,1005.60
2018-02-19T12:14:48.367Z,1005.59
2018-02-19T12:16:41.712Z,1005.61
2018-02-19T12:17:41.690Z,1005.57
2018-02-19T12:19:35.043Z,1005.56
2018-02-19T12:20:34.975Z,1005.54
2018-02-19T12:22:28.309Z,1005.52
2018-02-19T12:23:28.283Z,1005.53
2018-02-19T12:25:21.624Z,1005.49
2018-02-19T12:26:21.579Z,1005.51
2018-02-19T12:28:14.908Z,1005.52
2018-02-19T12:29:14.873Z,1005.49
2018-02-19T12:31:08.229Z,1005.47
2018-02-19T12:32:08.198Z,1005.46
2018-02-19T12:34:01.506Z,1005.47
2018-02-19T12:35:01.493Z,1005.45
2018-02-19T12:36:54.836Z,1005.41
2018-02-19T12:37:54.816Z,1005.46
2018-02-19T12:39:48.123Z,1005.40
2018-02-19T12:40:48.102Z,1005.38
2018-02-19T12:42:41.457Z,1005.39
2018-02-19T12:43:41.400Z,1005.36
2018-02-19T12:45:34.749Z,1005.45
2018-02-19T12:46:34.715Z,1005.41
2018-02-19T12:48:28.082Z,1005.35
2018-02-19T12:49:28.020Z,1005.37
2018-02-19T12:51:21.351Z,1005.35
2018-02-19T12:52:21.328Z,1005.32
2018-02-19T12:54:14.659Z,1005.33
2018-02-19T12:55:14.617Z,1005.30
2018-02-19T12:57:07.956Z,1005.32
2018-02-19T12:58:07.932Z,1005.29
2018-02-19T13:00:01.265Z,1005.28
2018-02-19T13:01:01.273Z,1005.33
2018-02-19T13:02:54.548Z,1005.29
2018-02-19T13:03:54.531Z,1005.30
2018-02-19T13:05:47.875Z,1005.26
2018-02-19T13:06:47.847Z,1005.23
2018-02-19T13:08:41.169Z,1005.21
2018-02-19T13:09:41.142Z,1005.21
2018-02-19T13:11:34.495Z,1005.23
2018-02-19T13:12:34.464Z,1005.22
2018-02-19T13:14:27.782Z,1005.24
2018-02-19T13:15:27.760Z,1005.25
2018-02-19T13:17:21.196Z,1005.25
2018-02-19T13:18:21.044Z,1005.22
2018-02-19T13:20:14.388Z,1005.22
2018-02-19T13:21:14.426Z,1005.16
2018-02-19T13:23:07.697Z,1005.18
2018-02-19T13:24:07.642Z,1005.16
2018-02-19T13:26:01.585Z,1005.13
2018-02-19T13:27:00.951Z,1005.11
2018-02-19T13:28:54.292Z,1005.07
2018-02-19T13:29:54.288Z,1005.06
2018-02-19T13:31:47.587Z,1005.02
2018-02-19T13:32:47.581Z,1005.09
2018-02-19T13:34:41.899Z,1005.02
2018-02-19T13:35:41.866Z,1005.01
2018-02-19T13:37:35.192Z,1005.06
2018-02-19T13:38:35.201Z,1005.04
2018-02-19T13:40:28.527Z,1004.94
2018-02-19T13:41:28.471Z,1004.93
2018-02-19T13:43:21.803Z,1004.90
2018-02-19T13:44:21.789Z,1004.85
2018-02-19T13:46:15.114Z,1004.88
2018-02-19T13:47:15.086Z,1004.87
2018-02-19T13:49:08.404Z,1004.80
2018-02-19T13:50:08.387Z,1004.80
2018-02-19T13:52:01.876Z,1004.82
2018-02-19T13:53:01.675Z,1004.77
2018-02-19T13:54:55.006Z,1004.73
2018-02-19T13:55:54.980Z,1004.72
2018-02-19T13:57:48.314Z,1004.70
2018-02-19T13:58:48.276Z,1004.74
2018-02-19T14:00:41.698Z,1004.71
2018-02-19T14:01:41.584Z,1004.72
2018-02-19T14:03:34.928Z,1004.67
2018-02-19T14:04:34.894Z,1004.60
2018-02-19T14:06:29.217Z,1004.62
2018-02-19T14:07:29.184Z,1004.60
2018-02-19T14:09:22.533Z,1004.65
2018-02-19T14:10:22.500Z,1004.69
2018-02-19T14:12:15.837Z,1004.69
2018-02-19T14:13:15.810Z,1004.67
2018-02-19T14:15:09.174Z,1004.66
2018-02-19T14:16:09.099Z,1004.68
2018-02-19T14:18:02.446Z,1004.71
2018-02-19T14:19:02.402Z,1004.66
2018-02-19T14:20:55.762Z,1004.72
2018-02-19T14:21:55.711Z,1004.67
2018-02-19T14:23:49.036Z,1004.68
2018-02-19T14:24:49.007Z,1004.67
2018-02-19T14:26:42.385Z,1004.70
2018-02-19T14:27:42.317Z,1004.72
2018-02-19T14:29:35.697Z,1004.70
2018-02-19T14:30:35.622Z,1004.70
2018-02-19T14:32:29.976Z,1004.77
2018-02-19T14:33:29.926Z,1004.78
2018-02-19T14:35:23.260Z,1004.79
2018-02-19T14:36:23.242Z,1004.79
2018-02-19T14:38:16.581Z,1004.84
2018-02-19T14:39:16.555Z,1004.85
2018-02-19T14:41:09.867Z,1004.81
2018-02-19T14:42:09.831Z,1004.76
2018-02-19T14:44:04.187Z,1004.79
2018-02-19T14:45:04.147Z,1004.77
2018-02-19T14:46:57.461Z,1004.78
2018-02-19T14:47:57.430Z,1004.75
2018-02-19T14:49:50.768Z,1004.75
2018-02-19T14:50:50.728Z,1004.76
2018-02-19T14:52:44.076Z,1004.78
2018-02-19T14:53:44.049Z,1004.78
2018-02-19T14:55:37.387Z,1004.75
2018-02-19T14:56:37.346Z,1004.76
2018-02-19T14:58:30.701Z,1004.76
2018-02-19T14:59:30.652Z,1004.73
2018-02-19T15:01:24.035Z,1004.73
2018-02-19T15:02:23.958Z,1004.74
2018-02-19T15:04:17.305Z,1004.73
2018-02-19T15:05:17.266Z,1004.73
2018-02-19T15:07:10.614Z,1004.68
2018-02-19T15:08:10.551Z,1004.73
2018-02-19T15:10:03.879Z,1004.74
2018-02-19T15:11:03.865Z,1004.72
2018-02-19T15:12:58.218Z,1004.68
2018-02-19T15:13:58.204Z,1004.70
2018-02-19T15:15:51.505Z,1004.73
2018-02-19T15:16:51.474Z,1004.71
2018-02-19T15:18:44.794Z,1004.67
2018-02-19T15:19:44.770Z,1004.64
2018-02-19T15:21:38.107Z,1004.68
2018-02-19T15:22:38.105Z,1004.69
2018-02-19T15:24:31.410Z,1004.67
2018-02-19T15:25:31.376Z,1004.71
2018-02-19T15:27:24.690Z,1004.75
2018-02-19T15:28:24.679Z,1004.76
2018-02-19T15:30:18.009Z,1004.72
2018-02-19T15:31:18.024Z,1004.66
2018-02-19T15:33:11.300Z,1004.67
2018-02-19T15:34:11.259Z,1004.67
2018-02-19T15:36:04.613Z,1004.67
2018-02-19T15:37:04.577Z,1004.67
2018-02-19T15:38:57.905Z,1004.62
2018-02-19T15:39:57.897Z,1004.62
2018-02-19T15:41:51.236Z,1004.64
2018-02-19T15:42:51.188Z,1004.58
2018-02-19T15:44:44.532Z,1004.50
2018-02-19T15:45:44.498Z,1004.53
2018-02-19T15:47:37.840Z,1004.47
2018-02-19T15:48:37.793Z,1004.47
2018-02-19T15:50:31.127Z,1004.54
2018-02-19T15:51:31.121Z,1004.55
2018-02-19T15:53:24.446Z,1004.51
2018-02-19T15:54:24.414Z,1004.54
2018-02-19T15:56:17.749Z,1004.52
2018-02-19T15:57:17.710Z,1004.51
2018-02-19T15:59:11.069Z,1004.55
2018-02-19T16:00:11.016Z,1004.54
2018-02-19T16:02:04.352Z,1004.48
2018-02-19T16:03:04.333Z,1004.50
2018-02-19T16:04:57.665Z,1004.45
2018-02-19T16:05:57.635Z,1004.48
2018-02-19T16:07:50.951Z,1004.52
2018-02-19T16:08:50.916Z,1004.51
2018-02-19T16:10:44.266Z,1004.51
2018-02-19T16:11:44.221Z,1004.52
2018-02-19T16:13:37.547Z,1004.57
2018-02-19T16:14:37.527Z,1004.54
2018-02-19T16:16:30.870Z,1004.60
2018-02-19T16:17:30.828Z,1004.58
2018-02-19T16:19:24.164Z,1004.54
2018-02-19T16:20:24.133Z,1004.58
2018-02-19T16:22:17.481Z,1004.55
2018-02-19T16:23:17.448Z,1004.56
2018-02-19T16:25:11.380Z,1004.55
2018-02-19T16:26:10.768Z,1004.52
2018-02-19T16:28:04.078Z,1004.53
2018-02-19T16:29:04.048Z,1004.54
2018-02-19T16:30:57.372Z,1004.55
2018-02-19T16:31:57.365Z,1004.58
2018-02-19T16:33:50.714Z,1004.57
2018-02-19T16:34:50.677Z,1004.60
2018-02-19T16:36:44.025Z,1004.60
2018-02-19T16:37:43.955Z,1004.60
2018-02-19T16:39:37.307Z,1004.60
2018-02-19T16:40:37.294Z,1004.61
2018-02-19T16:42:30.646Z,1004.53
2018-02-19T16:43:30.586Z,1004.55
2018-02-19T16:45:23.942Z,1004.56
2018-02-19T16:46:23.907Z,1004.58
2018-02-19T16:48:17.227Z,1004.55
2018-02-19T16:49:17.227Z,1004.47
2018-02-19T16:51:10.600Z,1004.53
2018-02-19T16:52:10.556Z,1004.49
2018-02-19T16:54:03.862Z,1004.52
2018-02-19T16:55:03.825Z,1004.52
2018-02-19T16:56:57.131Z,1004.50
2018-02-19T16:57:57.138Z,1004.50
2018-02-19T16:59:50.507Z,1004.46
2018-02-19T17:00:50.433Z,1004.47
2018-02-19T17:02:43.767Z,1004.52
2018-02-19T17:03:43.723Z,1004.51
2018-02-19T17:05:37.014Z,1004.54
2018-02-19T17:06:37.013Z,1004.54
2018-02-19T17:08:30.329Z,1004.52
2018-02-19T17:09:30.319Z,1004.49
2018-02-19T17:11:23.637Z,1004.47
2018-02-19T17:12:23.624Z,1004.46
2018-02-19T17:14:16.960Z,1004.49
2018-02-19T17:15:16.924Z,1004.49
2018-02-19T17:17:10.224Z,1004.47
2018-02-19T17:18:10.211Z,1004.49
2018-02-19T17:20:03.566Z,1004.44
2018-02-19T17:21:03.483Z,1004.40
2018-02-19T17:22:56.850Z,1004.45
2018-02-19T17:23:56.797Z,1004.44
2018-02-19T17:25:49.658Z,1004.45
2018-02-19T17:26:49.618Z,1004.44
2018-02-19T17:28:42.934Z,1004.42